createdAt,value
2023-04-16T00:00:21.029Z,2.70
2023-04-16T00:03:08.624Z,3.10
2023-04-16T00:05:37.669Z,3.40
2023-04-16T00:08:04.766Z,2.40
2023-04-16T00:10:31.854Z,1.50
2023-04-16T00:13:00.208Z,2.70
2023-04-16T00:15:27.958Z,2.20
2023-04-16T00:17:55.129Z,3.20
2023-04-16T00:20:22.986Z,1.50
2023-04-16T00:22:50.997Z,3.10
2023-04-16T00:25:19.239Z,3.20
2023-04-16T00:27:51.808Z,3.00
2023-04-16T00:30:19.982Z,3.40
2023-04-16T00:32:49.035Z,5.40
2023-04-16T00:35:16.190Z,4.20
2023-04-16T00:37:44.463Z,4.00
2023-04-16T00:40:12.231Z,4.10
2023-04-16T00:42:39.970Z,3.70
2023-04-16T00:45:11.115Z,3.70
2023-04-16T00:47:38.746Z,3.30
2023-04-16T00:50:34.918Z,4.60
2023-04-16T00:53:04.596Z,4.10
2023-04-16T00:55:32.929Z,4.90
2023-04-16T00:58:00.793Z,4.30
2023-04-16T01:05:28.796Z,3.60
2023-04-16T01:08:02.885Z,3.50
2023-04-16T01:10:31.362Z,3.80
2023-04-16T01:12:59.951Z,1.90
2023-04-16T01:15:30.999Z,3.80
2023-04-16T01:17:58.430Z,2.20
2023-04-16T01:22:55.371Z,2.50
2023-04-16T01:25:27.531Z,1.60
2023-04-16T01:27:57.151Z,2.70
2023-04-16T01:30:25.400Z,2.30
2023-04-16T01:33:18.353Z,2.60
2023-04-16T01:36:03.615Z,2.90
2023-04-16T01:38:35.695Z,5.00
2023-04-16T01:41:04.500Z,2.50
2023-04-16T01:43:31.687Z,5.30
2023-04-16T01:46:48.838Z,4.30
2023-04-16T01:49:35.518Z,2.80
2023-04-16T01:52:03.862Z,3.30
2023-04-16T01:54:33.319Z,2.90
2023-04-16T01:57:02.571Z,2.80
2023-04-16T01:59:31.210Z,3.90
2023-04-16T02:02:06.088Z,3.30
2023-04-16T02:04:33.412Z,3.00
2023-04-16T02:07:02.976Z,2.00
2023-04-16T02:09:37.788Z,3.20
2023-04-16T02:12:10.649Z,2.20
2023-04-16T02:14:38.847Z,2.20
2023-04-16T02:17:07.538Z,3.10
2023-04-16T02:19:43.837Z,3.10
2023-04-16T02:22:33.048Z,2.30
2023-04-16T02:25:08.114Z,3.60
2023-04-16T02:27:36.019Z,3.00
2023-04-16T02:30:14.468Z,2.90
2023-04-16T02:32:41.702Z,3.90
2023-04-16T02:35:09.302Z,3.70
2023-04-16T02:37:36.879Z,3.40
2023-04-16T02:40:36.676Z,4.50
2023-04-16T02:43:05.310Z,3.30
2023-04-16T02:45:34.082Z,2.50
2023-04-16T02:48:01.337Z,4.10
2023-04-16T02:50:34.007Z,3.60
2023-04-16T02:53:02.789Z,1.90
2023-04-16T02:56:09.586Z,2.60
2023-04-16T02:59:11.794Z,3.60
2023-04-16T03:01:44.535Z,3.50
2023-04-16T03:04:24.654Z,2.70
2023-04-16T03:07:03.312Z,3.00
2023-04-16T03:09:50.773Z,3.20
2023-04-16T03:12:35.529Z,3.70
2023-04-16T03:15:24.809Z,3.10
2023-04-16T03:18:00.426Z,2.00
2023-04-16T03:20:31.494Z,2.60
2023-04-16T03:22:59.227Z,2.80
2023-04-16T03:25:28.415Z,3.00
2023-04-16T03:27:56.740Z,4.40
2023-04-16T03:30:36.461Z,2.90
2023-04-16T03:33:09.058Z,2.20
2023-04-16T03:36:18.673Z,3.40
2023-04-16T03:38:59.175Z,2.10
2023-04-16T03:41:30.565Z,2.60
2023-04-16T03:44:18.021Z,2.10
2023-04-16T03:49:16.783Z,1.90
2023-04-16T03:52:06.394Z,4.70
2023-04-16T03:54:37.936Z,2.30
2023-04-16T03:57:15.516Z,2.30
2023-04-16T04:00:02.886Z,3.70
2023-04-16T04:03:30.365Z,2.60
2023-04-16T04:06:10.472Z,3.20
2023-04-16T04:08:40.489Z,3.10
2023-04-16T04:11:49.552Z,3.20
2023-04-16T04:14:20.643Z,3.50
2023-04-16T04:16:51.166Z,2.60
2023-04-16T04:19:19.713Z,2.70
2023-04-16T04:22:06.866Z,2.90
2023-04-16T04:25:04.097Z,4.20
2023-04-16T04:27:56.210Z,3.20
2023-04-16T04:30:30.956Z,3.70
2023-04-16T04:32:59.984Z,3.20
2023-04-16T04:35:35.088Z,3.20
2023-04-16T04:38:04.707Z,4.20
2023-04-16T04:40:34.190Z,3.40
2023-04-16T04:45:56.655Z,3.20
2023-04-16T04:48:28.687Z,3.00
2023-04-16T04:50:56.066Z,2.80
2023-04-16T04:53:23.515Z,2.20
2023-04-16T04:56:09.253Z,3.30
2023-04-16T04:58:47.021Z,2.40
2023-04-16T05:01:35.105Z,2.70
2023-04-16T05:04:05.804Z,1.90
2023-04-16T05:06:39.472Z,2.80
2023-04-16T05:09:26.481Z,3.00
2023-04-16T05:11:59.143Z,2.20
2023-04-16T05:17:09.910Z,2.90
2023-04-16T05:20:20.695Z,3.00
2023-04-16T05:22:52.122Z,1.90
2023-04-16T05:25:22.655Z,3.20
2023-04-16T05:28:34.270Z,1.80
2023-04-16T05:31:02.467Z,2.20
2023-04-16T05:33:31.004Z,2.60
2023-04-16T05:36:05.328Z,1.70
2023-04-16T05:38:34.325Z,2.00
2023-04-16T05:41:25.327Z,1.70
2023-04-16T05:43:52.813Z,1.90
2023-04-16T05:46:27.094Z,1.90
2023-04-16T05:48:58.052Z,3.10
2023-04-16T05:51:28.731Z,2.80
2023-04-16T05:54:36.035Z,3.60
2023-04-16T05:57:11.203Z,1.90
2023-04-16T05:59:41.947Z,1.80
2023-04-16T06:02:30.955Z,2.20
2023-04-16T06:05:04.535Z,2.20
2023-04-16T06:07:44.671Z,2.00
2023-04-16T06:10:53.467Z,2.10
2023-04-16T06:13:21.942Z,3.10
2023-04-16T06:15:52.866Z,2.10
2023-04-16T06:18:24.837Z,3.20
2023-04-16T06:20:58.379Z,3.30
2023-04-16T06:23:54.469Z,3.40
2023-04-16T06:26:43.923Z,1.90
2023-04-16T06:29:15.317Z,3.20
2023-04-16T06:32:24.575Z,3.70
2023-04-16T06:34:59.222Z,3.60
2023-04-16T06:37:48.779Z,4.50
2023-04-16T06:40:40.451Z,3.40
2023-04-16T06:43:33.895Z,3.40
2023-04-16T06:46:00.420Z,3.50
2023-04-16T06:48:44.648Z,3.20
2023-04-16T06:53:45.224Z,4.00
2023-04-16T06:56:15.724Z,4.60
2023-04-16T06:58:46.071Z,5.30
2023-04-16T07:01:36.621Z,4.00
2023-04-16T07:04:20.048Z,3.10
2023-04-16T07:06:46.859Z,3.60
2023-04-16T07:12:02.040Z,3.90
2023-04-16T07:14:50.165Z,4.10
2023-04-16T07:17:40.443Z,4.90
2023-04-16T07:20:47.234Z,4.90
2023-04-16T07:23:16.477Z,5.30
2023-04-16T07:25:45.999Z,3.70
2023-04-16T07:28:17.366Z,4.30
2023-04-16T07:30:48.070Z,4.30
2023-04-16T07:33:16.557Z,5.20
2023-04-16T07:35:43.242Z,4.10
2023-04-16T07:38:11.765Z,3.00
2023-04-16T07:40:58.763Z,5.20
2023-04-16T07:43:29.877Z,4.10
2023-04-16T07:46:06.566Z,4.90
2023-04-16T07:48:37.706Z,5.20
2023-04-16T07:51:08.028Z,4.50
2023-04-16T07:53:38.411Z,5.10
2023-04-16T07:56:09.300Z,3.70
2023-04-16T07:58:46.296Z,4.60
2023-04-16T08:01:16.880Z,4.20
2023-04-16T08:03:47.472Z,3.80
2023-04-16T08:06:15.959Z,2.30
2023-04-16T08:08:46.429Z,3.40
2023-04-16T08:11:20.000Z,1.90
2023-04-16T08:13:59.122Z,2.70
2023-04-16T08:16:30.579Z,1.60
2023-04-16T08:19:21.986Z,2.00
2023-04-16T08:22:30.838Z,1.30
2023-04-16T08:25:06.230Z,1.60
2023-04-16T08:27:37.164Z,1.20
2023-04-16T08:30:07.660Z,2.00
2023-04-16T08:32:39.309Z,1.20
2023-04-16T08:35:07.341Z,1.20
2023-04-16T08:37:33.974Z,1.60
2023-04-16T08:40:12.578Z,1.60
2023-04-16T08:43:02.892Z,1.80
2023-04-16T08:45:31.958Z,1.30
2023-04-16T08:48:15.126Z,1.40
2023-04-16T08:50:51.776Z,1.50
2023-04-16T08:53:22.600Z,0.90
2023-04-16T08:56:29.420Z,1.90
2023-04-16T08:59:07.897Z,2.50
2023-04-16T09:01:35.136Z,1.60
2023-04-16T09:04:06.729Z,1.40
2023-04-16T09:06:37.694Z,2.00
2023-04-16T09:09:08.624Z,2.40
2023-04-16T09:11:38.743Z,1.30
2023-04-16T09:14:46.034Z,1.30
2023-04-16T09:17:20.491Z,1.30
2023-04-16T09:20:09.421Z,1.90
2023-04-16T09:22:44.096Z,2.40
2023-04-16T09:25:14.846Z,1.70
2023-04-16T09:27:43.241Z,2.00
2023-04-16T09:30:22.728Z,1.30
2023-04-16T09:33:49.557Z,1.70
2023-04-16T09:36:22.509Z,1.50
2023-04-16T09:38:57.763Z,1.30
2023-04-16T09:41:55.153Z,1.40
2023-04-16T09:44:41.986Z,1.50
2023-04-16T09:47:12.665Z,1.80
2023-04-16T09:49:46.538Z,1.60
2023-04-16T09:52:21.843Z,1.40
2023-04-16T09:54:52.811Z,2.00
2023-04-16T09:57:32.873Z,0.80
2023-04-16T10:00:02.471Z,1.50
2023-04-16T10:02:42.382Z,1.30
2023-04-16T10:05:34.717Z,1.80
2023-04-16T10:08:10.850Z,1.60
2023-04-16T10:10:37.742Z,1.30
2023-04-16T10:13:08.300Z,1.20
2023-04-16T10:15:55.146Z,1.30
2023-04-16T10:18:23.189Z,1.40
2023-04-16T10:20:58.331Z,1.60
2023-04-16T10:24:13.480Z,1.10
2023-04-16T10:27:19.061Z,1.40
2023-04-16T10:30:08.633Z,0.90
2023-04-16T10:33:19.475Z,0.60
2023-04-16T10:35:52.347Z,1.60
2023-04-16T10:38:28.830Z,1.40
2023-04-16T10:41:01.510Z,1.40
2023-04-16T10:43:29.544Z,0.70
2023-04-16T10:46:17.768Z,1.20
2023-04-16T10:49:05.964Z,1.90
2023-04-16T10:51:34.857Z,0.90
2023-04-16T10:54:28.577Z,1.50
2023-04-16T10:57:17.206Z,1.30
2023-04-16T11:00:05.217Z,0.80
2023-04-16T11:02:34.268Z,1.70
2023-04-16T11:05:03.908Z,1.50
2023-04-16T11:07:33.560Z,1.50
2023-04-16T11:10:05.983Z,1.20
2023-04-16T11:12:38.384Z,2.50
2023-04-16T11:15:10.117Z,1.30
2023-04-16T11:17:47.198Z,0.90
2023-04-16T11:20:23.449Z,2.00
2023-04-16T11:22:52.338Z,1.80
2023-04-16T11:25:40.100Z,1.20
2023-04-16T11:28:08.675Z,1.40
2023-04-16T11:31:04.795Z,0.60
2023-04-16T11:33:52.358Z,1.30
2023-04-16T11:36:43.245Z,1.00
2023-04-16T11:39:31.952Z,1.70
2023-04-16T11:42:24.409Z,1.20
2023-04-16T11:45:00.247Z,1.90
2023-04-16T11:47:30.747Z,0.90
2023-04-16T11:50:40.638Z,1.90
2023-04-16T11:53:29.663Z,1.20
2023-04-16T11:56:22.170Z,2.50
2023-04-16T11:59:17.884Z,1.40
2023-04-16T12:02:02.578Z,0.40
2023-04-16T12:04:36.412Z,2.70
2023-04-16T12:07:13.941Z,1.40
2023-04-16T12:09:46.321Z,1.00
2023-04-16T12:12:30.169Z,1.90
2023-04-16T12:14:58.976Z,1.70
2023-04-16T12:17:32.915Z,1.30
2023-04-16T12:20:01.297Z,1.10
2023-04-16T12:22:29.387Z,2.20
2023-04-16T12:25:07.224Z,0.90
2023-04-16T12:27:51.347Z,1.00
2023-04-16T12:30:25.474Z,1.20
2023-04-16T12:32:53.840Z,1.00
2023-04-16T12:35:31.523Z,0.60
2023-04-16T12:37:59.299Z,0.90
2023-04-16T12:40:26.908Z,1.00
2023-04-16T12:42:54.423Z,1.30
2023-04-16T12:45:24.420Z,0.60
2023-04-16T12:47:51.695Z,0.80
2023-04-16T12:50:19.022Z,1.50
2023-04-16T12:52:46.192Z,1.30
2023-04-16T12:55:13.692Z,1.40
2023-04-16T12:57:40.732Z,1.90
2023-04-16T13:02:57.728Z,1.60
2023-04-16T13:05:27.813Z,1.70
2023-04-16T13:07:56.657Z,1.00
2023-04-16T13:10:44.636Z,1.20
2023-04-16T13:13:15.892Z,1.70
2023-04-16T13:15:54.836Z,1.40
2023-04-16T13:18:46.325Z,1.10
2023-04-16T13:21:20.074Z,0.60
2023-04-16T13:23:47.219Z,1.40
2023-04-16T13:26:16.333Z,2.10
2023-04-16T13:28:59.535Z,1.50
2023-04-16T13:31:26.733Z,1.00
2023-04-16T13:33:54.041Z,1.00
2023-04-16T13:38:48.691Z,0.90
2023-04-16T13:41:16.670Z,0.50
2023-04-16T13:43:43.860Z,1.00
2023-04-16T13:46:18.772Z,1.10
2023-04-16T13:48:46.558Z,1.50
2023-04-16T13:51:16.393Z,0.60
2023-04-16T13:53:49.734Z,1.40
2023-04-16T13:56:27.943Z,2.60
2023-04-16T13:58:57.455Z,2.00
2023-04-16T14:01:25.635Z,1.10
2023-04-16T14:03:53.383Z,0.80
2023-04-16T14:06:21.558Z,1.60
2023-04-16T14:08:57.364Z,1.30
2023-04-16T14:11:25.126Z,0.90
2023-04-16T14:13:54.953Z,1.10
2023-04-16T14:16:23.362Z,1.20
2023-04-16T14:18:53.284Z,1.20
2023-04-16T14:21:21.015Z,0.90
2023-04-16T14:23:49.014Z,1.40
2023-04-16T14:26:18.164Z,0.80
2023-04-16T14:28:46.976Z,1.10
2023-04-16T14:31:14.198Z,0.90
2023-04-16T14:33:44.245Z,1.60
2023-04-16T14:36:12.179Z,1.00
2023-04-16T14:38:40.198Z,1.40
2023-04-16T14:41:35.166Z,0.60
2023-04-16T14:44:15.224Z,0.90
2023-04-16T14:51:40.833Z,1.30
2023-04-16T14:54:08.576Z,0.90
2023-04-16T14:56:36.789Z,1.30
2023-04-16T14:59:04.732Z,0.90
2023-04-16T15:01:32.654Z,1.40
2023-04-16T15:04:02.054Z,1.40
2023-04-16T15:06:32.239Z,0.80
2023-04-16T15:09:00.534Z,0.90
2023-04-16T15:11:27.970Z,0.60
2023-04-16T15:16:23.071Z,0.90
2023-04-16T15:19:05.461Z,1.10
2023-04-16T15:21:32.857Z,0.50
2023-04-16T15:24:02.653Z,0.90
2023-04-16T15:26:29.878Z,1.10
2023-04-16T15:28:58.067Z,0.80
2023-04-16T15:31:25.847Z,1.50
2023-04-16T15:33:55.795Z,1.00
2023-04-16T15:36:22.888Z,0.50
2023-04-16T15:38:51.941Z,0.30
2023-04-16T15:41:19.826Z,0.70
2023-04-16T15:43:47.838Z,1.60
2023-04-16T15:48:44.631Z,0.70
2023-04-16T15:51:11.993Z,1.70
2023-04-16T15:53:39.809Z,0.80
2023-04-16T15:56:07.011Z,0.60
2023-04-16T15:58:34.290Z,1.40
2023-04-16T16:01:17.906Z,0.40
2023-04-16T16:03:45.231Z,0.40
2023-04-16T16:06:31.640Z,0.20
2023-04-16T16:09:01.269Z,1.20
2023-04-16T16:11:29.513Z,0.40
2023-04-16T16:14:18.563Z,0.90
2023-04-16T16:17:07.030Z,1.40
2023-04-16T16:19:36.058Z,1.00
2023-04-16T16:22:36.304Z,0.80
2023-04-16T16:25:25.185Z,1.20
2023-04-16T16:28:17.040Z,2.30
2023-04-16T16:31:07.429Z,1.20
2023-04-16T16:36:23.426Z,1.20
2023-04-16T16:38:52.127Z,1.60
2023-04-16T16:41:41.448Z,2.00
2023-04-16T16:44:27.262Z,1.10
2023-04-16T16:46:56.066Z,1.70
2023-04-16T16:49:39.894Z,3.10
2023-04-16T16:52:25.245Z,2.80
2023-04-16T16:54:54.623Z,1.60
2023-04-16T16:57:53.605Z,1.30
2023-04-16T17:00:52.917Z,2.20
2023-04-16T17:03:52.907Z,1.70
2023-04-16T17:06:47.345Z,2.80
2023-04-16T17:09:16.607Z,2.20
2023-04-16T17:11:47.800Z,1.90
2023-04-16T17:14:14.635Z,1.20
2023-04-16T17:17:08.859Z,0.90
2023-04-16T17:19:45.341Z,1.10
2023-04-16T17:22:15.909Z,1.60
2023-04-16T17:24:46.638Z,2.00
2023-04-16T17:27:34.164Z,1.60
2023-04-16T17:30:05.199Z,1.40
2023-04-16T17:32:37.181Z,0.70
2023-04-16T17:35:32.028Z,1.30
2023-04-16T17:38:00.619Z,0.80
2023-04-16T17:40:27.771Z,0.60
2023-04-16T17:42:54.953Z,1.30
2023-04-16T17:45:22.616Z,1.30
2023-04-16T17:47:49.351Z,2.30
2023-04-16T17:50:16.522Z,0.90
2023-04-16T17:52:46.683Z,0.70
2023-04-16T17:55:22.197Z,1.00
2023-04-16T17:57:50.114Z,1.40
2023-04-16T18:00:21.344Z,2.20
2023-04-16T18:02:48.760Z,2.00
2023-04-16T18:05:16.322Z,1.60
2023-04-16T18:07:46.771Z,1.20
2023-04-16T18:10:16.235Z,1.90
2023-04-16T18:12:43.449Z,1.90
2023-04-16T18:15:14.385Z,1.70
2023-04-16T18:17:42.853Z,1.00
2023-04-16T18:20:11.146Z,2.20
2023-04-16T18:22:41.285Z,2.00
2023-04-16T18:25:08.507Z,2.60
2023-04-16T18:27:36.298Z,2.40
2023-04-16T18:30:07.712Z,2.70
2023-04-16T18:32:35.015Z,1.50
2023-04-16T18:35:03.313Z,2.80
2023-04-16T18:37:31.319Z,1.70
2023-04-16T18:39:59.639Z,2.90
2023-04-16T18:42:27.481Z,3.00
2023-04-16T18:44:54.848Z,2.50
2023-04-16T18:47:21.986Z,2.60
2023-04-16T18:49:50.808Z,2.00
2023-04-16T18:52:19.261Z,2.40
2023-04-16T18:54:47.821Z,2.30
2023-04-16T18:57:15.900Z,2.60
2023-04-16T18:59:43.689Z,2.00
2023-04-16T19:02:10.853Z,2.00
2023-04-16T19:04:38.387Z,2.60
2023-04-16T19:07:06.447Z,3.70
2023-04-16T19:09:33.594Z,2.40
2023-04-16T19:12:02.242Z,3.00
2023-04-16T19:14:29.955Z,2.40
2023-04-16T19:16:57.545Z,2.50
2023-04-16T19:19:29.313Z,2.60
2023-04-16T19:21:56.470Z,2.70
2023-04-16T19:24:23.989Z,2.10
2023-04-16T19:26:52.268Z,2.50
2023-04-16T19:29:21.264Z,0.80
2023-04-16T19:31:48.801Z,1.60
2023-04-16T19:34:16.852Z,1.10
2023-04-16T19:36:45.372Z,0.80
2023-04-16T19:39:12.739Z,1.40
2023-04-16T19:42:08.565Z,1.00
2023-04-16T19:44:44.838Z,0.70
2023-04-16T19:47:14.804Z,0.90
2023-04-16T19:49:43.260Z,0.80
2023-04-16T19:52:10.673Z,0.80
2023-04-16T19:57:05.494Z,0.80
2023-04-16T19:59:33.515Z,1.70
2023-04-16T20:02:01.730Z,0.60
2023-04-16T20:04:29.540Z,0.90
2023-04-16T20:07:00.540Z,0.90
2023-04-16T20:09:27.851Z,1.10
2023-04-16T20:11:56.412Z,1.60
2023-04-16T20:14:24.520Z,1.70
2023-04-16T20:16:52.277Z,1.40
2023-04-16T20:19:20.491Z,1.00
2023-04-16T20:21:47.597Z,1.00
2023-04-16T20:24:14.862Z,1.10
2023-04-16T20:29:10.374Z,1.60
2023-04-16T20:31:37.972Z,0.60
2023-04-16T20:34:05.518Z,1.10
2023-04-16T20:39:06.553Z,0.80
2023-04-16T20:41:34.635Z,1.00
2023-04-16T20:44:05.034Z,0.50
2023-04-16T20:46:41.366Z,1.20
2023-04-16T20:49:09.739Z,1.10
2023-04-16T20:51:38.649Z,0.80
2023-04-16T20:54:08.052Z,0.80
2023-04-16T20:56:35.429Z,1.00
2023-04-16T21:01:34.040Z,0.90
2023-04-16T21:04:05.297Z,0.60
2023-04-16T21:06:33.748Z,0.80
2023-04-16T21:09:22.194Z,1.20
2023-04-16T21:11:51.546Z,0.80
2023-04-16T21:14:39.631Z,1.00
2023-04-16T21:17:47.002Z,0.70
2023-04-16T21:20:36.929Z,1.30
2023-04-16T21:23:26.337Z,1.30
2023-04-16T21:25:58.446Z,0.70
2023-04-16T21:28:49.051Z,1.20
2023-04-16T21:31:21.412Z,0.80
2023-04-16T21:34:10.779Z,1.00
2023-04-16T21:36:41.764Z,0.80
2023-04-16T21:39:50.403Z,0.60
2023-04-16T21:42:26.482Z,0.30
2023-04-16T21:45:12.651Z,1.00
2023-04-16T21:47:45.084Z,1.40
2023-04-16T21:50:38.329Z,0.80
2023-04-16T21:53:31.714Z,0.50
2023-04-16T21:56:19.737Z,0.90
2023-04-16T21:59:28.354Z,0.60
